Time;durP1;ratioP1;P1;durP2;ratioP2;P2;SDS_P1;SDS_P2;PMS_P1;PMS_P2;Temp;Humidity;BMP_temperature;BMP_pressure;BME280_temperature;BME280_humidity;BME280_pressure;Samples;Min_cycle;Max_cycle;Signal;HPM_P1;HPM_P2
2023/06/23 00:01:37;;;;;;;3.07;2.30;;;;;;;23.17;84.72;98138.75;4172417;28;21209;-80
2023/06/23 00:03:43;;;;;;;2.77;2.17;;;;;;;23.10;85.36;98133.34;4161331;28;20636;-80
2023/06/23 00:06:07;;;;;;;2.67;1.80;;;;;;;23.14;85.50;98144.44;4170856;28;20721;-80
2023/06/23 00:08:31;;;;;;;3.20;2.20;;;;;;;23.15;85.10;98146.13;4170822;28;20665;-80
2023/06/23 00:10:54;;;;;;;3.03;2.23;;;;;;;23.13;85.27;98159.59;4173425;28;21157;-80
2023/06/23 00:13:19;;;;;;;3.47;2.63;;;;;;;23.14;85.28;98150.63;4167590;28;20632;-80
2023/06/23 00:15:25;;;;;;;3.87;2.80;;;;;;;23.13;85.03;98156.13;4157885;28;21246;-80
2023/06/23 00:17:50;;;;;;;6.43;3.13;;;;;;;23.14;85.97;98160.41;4171633;28;21409;-80
2023/06/23 00:19:55;;;;;;;3.70;2.93;;;;;;;23.15;85.55;98159.41;4170606;28;20673;-80
2023/06/23 00:22:18;;;;;;;4.43;2.90;;;;;;;23.15;86.03;98160.25;4168888;28;20738;-80
2023/06/23 00:24:27;;;;;;;3.50;3.00;;;;;;;23.13;85.57;98161.44;4171754;28;20697;-80
2023/06/23 00:26:31;;;;;;;3.87;2.97;;;;;;;23.13;85.35;98159.59;4171957;28;20731;-80
2023/06/23 00:28:56;;;;;;;3.67;2.80;;;;;;;23.14;85.83;98165.75;4154781;28;20674;-80
2023/06/23 00:31:19;;;;;;;3.77;3.40;;;;;;;23.10;85.50;98159.97;4169664;28;20632;-80
2023/06/23 00:33:42;;;;;;;3.90;3.30;;;;;;;23.00;85.76;98159.38;4169851;28;20624;-80
2023/06/23 00:36:06;;;;;;;3.63;3.30;;;;;;;22.95;85.51;98166.25;4157110;28;20626;-79
2023/06/23 00:38:33;;;;;;;3.87;3.10;;;;;;;22.95;86.62;98176.91;4157390;28;20636;-80
2023/06/23 00:40:58;;;;;;;4.57;3.30;;;;;;;22.97;86.59;98169.56;4152313;28;20637;-80
2023/06/23 00:43:17;;;;;;;3.50;3.20;;;;;;;22.96;86.56;98167.94;4151362;28;20650;-80
2023/06/23 00:45:22;;;;;;;3.87;3.37;;;;;;;22.88;86.79;98178.59;4169972;28;20969;-80
2023/06/23 00:47:39;;;;;;;4.30;3.30;;;;;;;22.85;85.84;98185.09;4170071;28;20608;-80
2023/06/23 00:49:43;;;;;;;3.97;3.10;;;;;;;22.86;86.86;98177.94;4171415;28;20684;-80
2023/06/23 00:51:46;;;;;;;3.60;3.20;;;;;;;22.80;86.44;98183.97;4170277;28;20745;-79
2023/06/23 00:53:50;;;;;;;3.93;3.23;;;;;;;22.77;86.37;98179.81;4173548;28;20644;-80
2023/06/23 00:55:55;;;;;;;3.97;3.57;;;;;;;22.80;86.64;98179.47;4172765;28;20760;-80
2023/06/23 00:57:59;;;;;;;3.93;3.17;;;;;;;22.80;86.45;98176.81;4168746;28;21264;-80
2023/06/23 01:00:13;;;;;;;3.50;3.10;;;;;;;22.83;86.60;98167.66;4168515;28;20645;-80
2023/06/23 01:02:17;;;;;;;3.10;2.63;;;;;;;22.84;87.04;98169.31;4170233;28;20663;-80
2023/06/23 01:04:22;;;;;;;3.67;3.30;;;;;;;22.85;86.00;98176.28;4171290;28;20633;-80
2023/06/23 01:06:30;;;;;;;3.90;3.17;;;;;;;22.85;87.08;98170.97;4173488;28;21057;-80
2023/06/23 01:08:38;;;;;;;3.87;3.40;;;;;;;22.85;86.79;98174.47;4173366;28;20647;-80
2023/06/23 01:10:44;;;;;;;4.07;3.47;;;;;;;22.82;86.65;98176.63;4165802;28;20636;-80
2023/06/23 01:12:56;;;;;;;4.20;3.20;;;;;;;22.81;87.06;98180.31;4167240;28;20629;-80
2023/06/23 01:15:06;;;;;;;3.80;3.40;;;;;;;22.81;87.66;98185.63;4167445;28;20671;-80
2023/06/23 01:17:12;;;;;;;3.73;3.40;;;;;;;22.74;89.26;98182.03;4169194;28;20702;-80
2023/06/23 01:19:23;;;;;;;3.83;3.30;;;;;;;22.65;90.25;98184.94;4170290;28;20684;-80
2023/06/23 01:21:33;;;;;;;4.33;3.50;;;;;;;22.53;91.79;98184.50;4170511;28;20624;-80
2023/06/23 01:23:47;;;;;;;4.07;3.50;;;;;;;22.44;92.39;98187.38;4168761;28;21297;-80
2023/06/23 01:25:55;;;;;;;4.10;3.53;;;;;;;22.37;93.93;98199.72;4156756;28;20652;-80
2023/06/23 01:28:03;;;;;;;4.30;3.90;;;;;;;;;;4170642;28;20644;-80
2023/06/23 01:30:12;;;;;;;4.40;3.80;;;;;;;22.24;95.07;98194.16;4164935;28;21106;-80
2023/06/23 01:32:20;;;;;;;4.70;4.20;;;;;;;22.18;94.72;98204.63;4170131;28;20621;-80
2023/06/23 01:34:26;;;;;;;4.33;3.90;;;;;;;22.15;95.21;98202.31;4146951;28;20746;-80
2023/06/23 01:36:34;;;;;;;4.63;4.00;;;;;;;22.13;95.84;98209.63;4166618;28;20678;-80
2023/06/23 01:38:40;;;;;;;6.07;3.80;;;;;;;22.11;95.36;98207.13;4187180;28;20660;-80
2023/06/23 01:40:46;;;;;;;4.40;3.67;;;;;;;22.05;95.63;98212.31;4170438;28;21236;-80
2023/06/23 01:42:53;;;;;;;4.17;3.77;;;;;;;22.01;96.39;98211.84;4168851;28;21290;-80
2023/06/23 01:44:59;;;;;;;4.30;3.90;;;;;;;21.99;96.70;98211.16;4172557;28;20640;-80
2023/06/23 01:47:19;;;;;;;4.37;3.97;;;;;;;21.96;97.30;98210.69;4182525;28;20741;-80
2023/06/23 01:49:25;;;;;;;4.00;3.40;;;;;;;21.94;96.99;98207.41;4164645;28;20667;-79
2023/06/23 01:51:30;;;;;;;4.30;3.90;;;;;;;21.92;97.88;98215.53;4169628;28;20627;-80
2023/06/23 01:53:33;;;;;;;4.30;3.57;;;;;;;21.88;97.47;98219.53;4165831;28;20643;-80
2023/06/23 01:55:39;;;;;;;4.20;3.80;;;;;;;21.86;97.93;98220.69;4156061;28;20636;-80
2023/06/23 01:57:43;;;;;;;4.03;3.60;;;;;;;21.83;97.91;98218.38;4169516;28;20634;-80
2023/06/23 01:59:48;;;;;;;4.10;3.60;;;;;;;21.81;98.23;98228.34;4173288;28;20648;-80
2023/06/23 02:01:53;;;;;;;3.63;3.10;;;;;;;21.70;97.89;98228.72;4181684;28;20628;-80
2023/06/23 02:04:00;;;;;;;4.27;3.50;;;;;;;21.65;98.10;98227.56;4153661;28;21243;-80
2023/06/23 02:06:06;;;;;;;3.67;3.27;;;;;;;21.58;97.73;98243.34;4170156;28;21033;-80
2023/06/23 02:08:10;;;;;;;4.33;3.20;;;;;;;21.55;97.81;98241.03;4168920;28;20671;-80
2023/06/23 02:10:17;;;;;;;4.40;3.40;;;;;;;21.52;97.59;98243.19;4171275;28;20674;-80
2023/06/23 02:12:22;;;;;;;5.17;3.30;;;;;;;21.47;97.30;98250.81;4183991;28;20623;-80
2023/06/23 02:14:27;;;;;;;4.50;3.47;;;;;;;21.44;97.57;98248.47;4167763;28;20634;-80
2023/06/23 02:16:32;;;;;;;3.50;3.20;;;;;;;21.41;96.62;98257.63;4170511;28;20640;-80
2023/06/23 02:18:36;;;;;;;4.57;3.33;;;;;;;21.40;97.01;98263.91;4168212;28;20640;-80
2023/06/23 02:20:43;;;;;;;4.30;3.50;;;;;;;21.39;96.75;98264.94;4168968;28;20635;-80
2023/06/23 02:22:47;;;;;;;3.67;2.80;;;;;;;21.36;95.51;98267.06;4153532;28;20667;-80
2023/06/23 02:24:51;;;;;;;4.07;3.30;;;;;;;21.32;96.88;98274.53;4171300;28;20623;-80
2023/06/23 02:26:55;;;;;;;4.10;3.20;;;;;;;21.30;96.94;98270.38;4170129;28;20630;-80
2023/06/23 02:28:59;;;;;;;5.47;3.87;;;;;;;21.27;95.90;98275.19;4170726;28;21035;-80
2023/06/23 02:31:03;;;;;;;4.73;3.83;;;;;;;21.30;94.71;98276.53;4169950;28;20670;-80
2023/06/23 02:33:06;;;;;;;5.50;3.80;;;;;;;21.23;95.06;98287.97;4171426;28;20798;-80
2023/06/23 02:35:13;;;;;;;4.60;3.83;;;;;;;21.19;94.84;98285.81;4157457;28;20658;-80
2023/06/23 02:37:22;;;;;;;4.47;3.80;;;;;;;21.19;95.47;98285.81;4162677;28;20637;-80
2023/06/23 02:39:29;;;;;;;5.10;3.47;;;;;;;21.17;95.28;98287.78;4172690;28;20619;-80
2023/06/23 02:41:34;;;;;;;5.40;3.90;;;;;;;21.13;94.53;98289.13;4171705;28;20633;-80
2023/06/23 02:43:42;;;;;;;4.70;3.37;;;;;;;21.08;94.04;98291.44;4171710;28;20692;-80
2023/06/23 02:45:48;;;;;;;4.60;3.43;;;;;;;21.06;95.52;98304.84;4169161;28;20694;-82
2023/06/23 02:47:54;;;;;;;5.20;3.40;;;;;;;21.02;95.40;98292.94;4166081;28;20639;-82
2023/06/23 02:50:00;;;;;;;4.30;2.97;;;;;;;20.98;95.96;98296.09;4176795;28;20642;-81
2023/06/23 02:52:09;;;;;;;5.90;3.27;;;;;;;20.95;96.21;98299.88;4170134;28;20748;-81
2023/06/23 02:54:18;;;;;;;4.07;3.13;;;;;;;20.94;96.65;98308.00;4176072;28;20816;-80
2023/06/23 02:56:25;;;;;;;4.77;3.77;;;;;;;20.91;96.96;98311.84;4172493;28;21245;-81
2023/06/23 02:58:30;;;;;;;4.33;3.43;;;;;;;20.90;95.80;98314.66;4169201;28;21280;-81
2023/06/23 03:00:37;;;;;;;5.00;3.13;;;;;;;20.89;97.44;98321.75;4172353;28;20646;-81
2023/06/23 03:02:44;;;;;;;4.77;3.60;;;;;;;20.85;96.81;98315.13;4157362;28;20629;-81
2023/06/23 03:04:49;;;;;;;4.13;3.00;;;;;;;20.81;96.38;98332.34;4157569;28;20740;-81
2023/06/23 03:06:53;;;;;;;3.87;2.90;;;;;;;20.79;96.69;98330.84;4157603;28;20654;-81
2023/06/23 03:08:57;;;;;;;4.13;3.00;;;;;;;20.80;97.16;98334.34;4170901;28;20626;-81
2023/06/23 03:11:02;;;;;;;3.30;2.50;;;;;;;20.79;96.59;98324.72;4169052;28;20667;-81
2023/06/23 03:13:06;;;;;;;3.63;3.10;;;;;;;20.78;97.77;98331.84;4170114;28;20641;-81
2023/06/23 03:15:10;;;;;;;3.97;3.10;;;;;;;20.79;97.39;98349.41;4183169;28;20632;-81
2023/06/23 03:17:16;;;;;;;4.30;3.60;;;;;;;20.78;98.08;98344.25;4172382;28;20736;-81
2023/06/23 03:19:25;;;;;;;4.30;3.40;;;;;;;20.80;97.51;98344.94;4172750;28;20691;-81
2023/06/23 03:21:28;;;;;;;4.20;3.43;;;;;;;20.80;96.46;98348.41;4173007;28;20634;-81
2023/06/23 03:23:37;;;;;;;5.00;3.63;;;;;;;20.78;97.66;98350.41;4171292;28;20641;-81
2023/06/23 03:25:41;;;;;;;4.93;3.77;;;;;;;20.74;96.67;98359.69;4171630;28;20691;-81
2023/06/23 03:27:48;;;;;;;4.80;3.53;;;;;;;20.71;98.29;98354.69;4164874;28;20637;-81
2023/06/23 03:29:56;;;;;;;5.27;4.10;;;;;;;20.68;96.68;98354.19;4172327;28;20664;-81
2023/06/23 03:32:04;;;;;;;6.73;4.73;;;;;;;20.68;97.74;98359.50;4167428;28;20670;-81
2023/06/23 03:34:07;;;;;;;6.03;4.57;;;;;;;20.68;97.61;98352.34;4166237;28;20634;-80
2023/06/23 03:36:16;;;;;;;5.77;4.23;;;;;;;20.67;96.90;98358.66;4164488;28;20633;-81
2023/06/23 03:38:22;;;;;;;6.60;5.40;;;;;;;20.65;96.99;98359.78;4156879;28;20639;-80
2023/06/23 03:40:27;;;;;;;6.90;5.50;;;;;;;20.67;96.92;98365.75;4171896;28;20617;-79
2023/06/23 03:42:31;;;;;;;7.10;5.80;;;;;;;20.66;96.96;98367.56;4165805;28;20716;-80
2023/06/23 03:44:39;;;;;;;8.23;5.97;;;;;;;20.67;97.72;98371.03;4172139;28;20645;-82
2023/06/23 03:46:47;;;;;;;6.70;6.00;;;;;;;20.65;97.03;98363.25;4171497;28;21251;-82
2023/06/23 03:48:54;;;;;;;7.73;6.43;;;;;;;20.65;97.79;98371.22;4154168;28;20638;-81
2023/06/23 03:50:59;;;;;;;8.90;6.90;;;;;;;20.65;97.76;98373.84;4172842;28;20654;-82
2023/06/23 03:53:08;;;;;;;8.57;6.73;;;;;;;20.65;96.52;98375.69;4167345;28;20641;-81
2023/06/23 03:55:14;;;;;;;8.03;6.90;;;;;;;20.67;96.15;98379.00;4162829;28;20611;-81
2023/06/23 03:57:22;;;;;;;8.00;7.20;;;;;;;20.66;96.67;98372.03;4185692;28;21139;-80
2023/06/23 03:59:28;;;;;;;10.57;7.33;;;;;;;20.64;96.91;98380.16;4172815;28;21089;-86
2023/06/23 04:01:34;;;;;;;9.77;7.57;;;;;;;20.64;97.53;98374.88;4167814;28;20991;-82
2023/06/23 04:03:42;;;;;;;9.10;8.00;;;;;;;20.64;97.20;98374.00;4166980;28;20657;-82
2023/06/23 04:05:47;;;;;;;11.17;8.47;;;;;;;20.66;96.74;98383.47;4152342;28;20617;-83
2023/06/23 04:07:51;;;;;;;10.00;8.17;;;;;;;20.65;97.60;98386.28;4168064;28;20652;-83
2023/06/23 04:09:55;;;;;;;11.13;8.77;;;;;;;20.67;96.65;98390.47;4164961;28;20665;-83
2023/06/23 04:12:00;;;;;;;9.97;7.63;;;;;;;20.69;97.20;98388.50;4171888;28;20646;-83
2023/06/23 04:14:06;;;;;;;10.77;8.37;;;;;;;20.70;96.67;98382.19;4169643;28;20663;-83
2023/06/23 04:16:10;;;;;;;8.73;7.40;;;;;;;20.69;95.62;98395.59;4139475;28;20734;-83
2023/06/23 04:18:17;;;;;;;9.07;7.67;;;;;;;20.70;96.07;98399.94;4148159;28;20646;-83
2023/06/23 04:20:21;;;;;;;12.00;8.97;;;;;;;20.71;96.91;98402.41;4170120;28;20663;-83
2023/06/23 04:22:26;;;;;;;10.33;8.30;;;;;;;20.71;96.25;98401.59;4170928;28;21022;-83
2023/06/23 04:24:31;;;;;;;11.90;8.90;;;;;;;20.69;95.88;98403.56;4175079;28;20645;-83
2023/06/23 04:26:36;;;;;;;9.10;7.33;;;;;;;20.73;95.83;98410.22;4149138;28;20642;-82
2023/06/23 04:28:40;;;;;;;8.63;7.70;;;;;;;20.75;96.26;98424.13;4164235;28;20997;-82
2023/06/23 04:30:45;;;;;;;9.97;8.50;;;;;;;20.76;96.29;98431.94;4167367;28;20667;-82
2023/06/23 04:32:49;;;;;;;10.07;8.40;;;;;;;20.75;96.35;98432.94;4165699;28;20852;-82
2023/06/23 04:34:54;;;;;;;10.37;8.90;;;;;;;20.72;95.67;98425.31;4140353;28;20626;-82
2023/06/23 04:37:03;;;;;;;10.53;9.00;;;;;;;20.76;96.21;98417.84;4160488;28;20636;-82
2023/06/23 04:39:11;;;;;;;12.00;9.17;;;;;;;20.77;95.56;98432.78;4168974;28;20657;-82
2023/06/23 04:41:19;;;;;;;12.10;9.40;;;;;;;20.78;96.48;98437.94;4169293;28;20670;-82
2023/06/23 04:43:29;;;;;;;10.73;8.90;;;;;;;20.78;97.02;98445.88;4162821;28;20625;-82
2023/06/23 04:45:34;;;;;;;12.17;9.60;;;;;;;20.78;96.50;98445.03;4165809;28;20638;-82
2023/06/23 04:47:39;;;;;;;12.43;8.73;;;;;;;20.77;95.39;98438.91;4166503;28;20663;-83
2023/06/23 04:49:46;;;;;;;11.97;9.80;;;;;;;20.78;96.40;98445.88;4168468;28;20640;-83
2023/06/23 04:51:53;;;;;;;12.27;9.77;;;;;;;20.80;94.69;98445.72;4168025;28;20669;-81
2023/06/23 04:54:01;;;;;;;11.83;9.53;;;;;;;20.82;94.75;98444.56;4166238;28;20638;-81
2023/06/23 04:56:08;;;;;;;12.47;10.10;;;;;;;20.82;95.00;98447.22;4160579;28;20640;-81
2023/06/23 04:58:12;;;;;;;11.43;9.60;;;;;;;20.83;94.83;98447.06;4168582;28;20630;-81
2023/06/23 05:00:19;;;;;;;12.03;10.70;;;;;;;20.85;94.42;98446.91;4163401;28;20746;-83
2023/06/23 05:02:25;;;;;;;12.90;10.53;;;;;;;20.88;94.16;98454.53;4166396;28;21469;-82
2023/06/23 05:04:29;;;;;;;11.67;9.23;;;;;;;20.94;94.09;98451.25;4162843;28;20638;-82
2023/06/23 05:06:34;;;;;;;12.97;10.13;;;;;;;20.93;95.19;98450.41;4170933;28;21278;-82
2023/06/23 05:08:45;;;;;;;13.37;10.80;;;;;;;20.94;94.73;98462.72;4171563;28;21092;-83
2023/06/23 05:10:49;;;;;;;15.70;12.23;;;;;;;20.98;94.76;98463.22;4163736;28;21232;-82
2023/06/23 05:12:56;;;;;;;12.67;10.77;;;;;;;21.02;94.76;98476.00;4149519;28;20621;-82
2023/06/23 05:15:00;;;;;;;13.87;12.23;;;;;;;21.13;93.45;98473.03;4168639;28;20707;-82
2023/06/23 05:17:06;;;;;;;15.30;11.83;;;;;;;21.15;92.77;98486.16;4171148;28;20635;-82
2023/06/23 05:19:12;;;;;;;14.10;12.60;;;;;;;21.16;92.74;98477.22;4153490;28;20626;-82
2023/06/23 05:21:19;;;;;;;17.90;12.73;;;;;;;21.19;92.80;98479.53;4152386;28;20628;-83
2023/06/23 05:23:23;;;;;;;16.30;13.03;;;;;;;21.14;92.22;98474.72;4157045;28;20642;-82
2023/06/23 05:25:30;;;;;;;15.87;13.00;;;;;;;21.07;92.30;98475.53;4165562;28;20642;-82
2023/06/23 05:27:34;;;;;;;15.93;12.47;;;;;;;21.00;92.66;98479.78;4170355;28;20656;-82
2023/06/23 05:29:40;;;;;;;15.67;13.10;;;;;;;20.95;92.70;98480.25;4170376;28;20642;-83
2023/06/23 05:31:45;;;;;;;18.73;13.60;;;;;;;20.91;92.30;98483.41;4166751;28;20662;-82
2023/06/23 05:33:49;;;;;;;18.27;14.30;;;;;;;20.88;92.83;98483.72;4154255;28;20631;-83
2023/06/23 05:35:53;;;;;;;18.63;14.37;;;;;;;20.85;92.71;98476.06;4155626;28;20661;-82
2023/06/23 05:37:58;;;;;;;18.57;14.53;;;;;;;20.86;92.70;98478.56;4169602;28;20705;-83
2023/06/23 05:40:03;;;;;;;16.93;14.30;;;;;;;20.85;92.73;98478.72;4162442;28;20625;-82
2023/06/23 05:42:08;;;;;;;19.20;15.73;;;;;;;20.83;91.97;98478.88;4170789;28;20635;-82
2023/06/23 05:44:11;;;;;;;19.30;15.77;;;;;;;20.83;93.27;98484.19;4169593;28;20696;-84
2023/06/23 05:46:17;;;;;;;19.73;15.60;;;;;;;20.80;92.59;98481.84;4146102;28;20652;-84
2023/06/23 05:48:27;;;;;;;21.90;16.00;;;;;;;20.81;93.23;98483.53;4162353;28;20729;-84
2023/06/23 05:50:32;;;;;;;21.27;16.40;;;;;;;20.80;93.32;98478.38;4170623;28;20662;-85
2023/06/23 05:52:37;;;;;;;23.33;17.63;;;;;;;20.80;93.49;98486.34;4166403;28;20655;-83
2023/06/23 05:54:43;;;;;;;23.67;18.40;;;;;;;20.79;92.73;98484.66;4169514;28;20740;-82
2023/06/23 05:56:51;;;;;;;23.83;17.80;;;;;;;20.78;92.95;98483.00;4151241;28;20742;-84
2023/06/23 05:58:58;;;;;;;23.63;16.93;;;;;;;20.79;94.13;98478.53;4168135;28;20635;-84
2023/06/23 06:01:07;;;;;;;24.13;18.27;;;;;;;20.79;92.04;98484.66;4142117;28;20646;-83
2023/06/23 06:03:14;;;;;;;25.70;18.20;;;;;;;20.80;92.47;98488.16;4161247;28;21328;-83
2023/06/23 06:05:18;;;;;;;24.27;17.00;;;;;;;20.80;92.39;98492.47;4150537;28;20633;-83
2023/06/23 06:07:22;;;;;;;24.27;18.17;;;;;;;20.82;92.46;98484.34;4167490;28;20670;-83
2023/06/23 06:09:28;;;;;;;23.13;17.87;;;;;;;20.80;91.28;98486.34;4173907;28;20696;-83
2023/06/23 06:11:34;;;;;;;25.63;19.47;;;;;;;20.78;91.83;98485.66;4162523;28;21106;-84
2023/06/23 06:13:40;;;;;;;24.73;18.57;;;;;;;20.83;92.03;98488.66;4153802;28;21232;-84
2023/06/23 06:15:45;;;;;;;24.07;18.20;;;;;;;20.89;92.37;98496.00;4178198;28;21062;-84
2023/06/23 06:17:51;;;;;;;24.13;17.70;;;;;;;20.93;92.67;98495.53;4155502;28;20646;-83
2023/06/23 06:19:57;;;;;;;25.40;18.60;;;;;;;21.00;91.83;98509.81;4160054;28;20633;-83
2023/06/23 06:22:01;;;;;;;24.93;19.53;;;;;;;20.98;90.58;98506.47;4151144;28;20629;-83
2023/06/23 06:24:07;;;;;;;26.00;19.80;;;;;;;20.95;89.94;98511.28;4172079;28;20652;-83
2023/06/23 06:26:11;;;;;;;26.90;19.80;;;;;;;20.90;89.53;98510.94;4171300;28;20641;-83
2023/06/23 06:28:15;;;;;;;27.63;19.20;;;;;;;20.86;90.33;98521.00;4171942;28;21188;-83
2023/06/23 06:30:20;;;;;;;25.33;19.43;;;;;;;20.86;90.41;98520.19;4155061;28;21095;-83
2023/06/23 06:32:29;;;;;;;24.77;18.23;;;;;;;20.86;90.80;98526.31;4175985;28;20651;-83
2023/06/23 06:34:32;;;;;;;28.17;20.53;;;;;;;20.86;90.38;98528.97;4175411;28;20626;-83
2023/06/23 06:36:38;;;;;;;27.53;19.13;;;;;;;20.86;91.19;98528.97;4174487;28;20714;-83
2023/06/23 06:38:44;;;;;;;26.50;20.20;;;;;;;20.87;91.14;98540.41;4166849;28;20645;-82
2023/06/23 06:40:49;;;;;;;26.83;20.63;;;;;;;20.88;90.35;98544.72;4179358;28;21166;-83
2023/06/23 06:42:55;;;;;;;26.97;19.00;;;;;;;20.89;90.91;98547.22;4177644;28;20652;-83
2023/06/23 06:44:59;;;;;;;24.47;18.97;;;;;;;20.92;90.82;98552.19;4176950;28;21035;-83
2023/06/23 06:47:04;;;;;;;23.73;18.50;;;;;;;20.97;89.96;98557.03;4174701;28;20641;-83
2023/06/23 06:49:10;;;;;;;24.90;19.43;;;;;;;20.98;89.99;98558.72;4167722;28;20720;-83
2023/06/23 06:51:17;;;;;;;23.23;18.23;;;;;;;20.99;89.94;98555.09;4167851;28;20650;-83
2023/06/23 06:53:21;;;;;;;27.73;20.43;;;;;;;20.98;89.22;98559.53;4168555;28;20657;-83
2023/06/23 06:55:25;;;;;;;24.50;18.87;;;;;;;20.96;88.65;98566.00;4158658;28;20638;-83
2023/06/23 06:57:28;;;;;;;23.77;17.50;;;;;;;20.91;89.50;98579.75;4157047;28;21223;-83
2023/06/23 06:59:32;;;;;;;23.87;17.73;;;;;;;20.93;89.67;98574.28;4163568;28;21441;-83
2023/06/23 07:01:36;;;;;;;23.57;17.97;;;;;;;20.94;89.90;98586.53;4138945;28;20639;-83
2023/06/23 07:03:41;;;;;;;24.60;17.40;;;;;;;20.94;89.71;98591.84;4165317;28;20634;-83
2023/06/23 07:05:49;;;;;;;25.07;18.03;;;;;;;20.94;89.09;98594.50;4164359;28;20627;-83
2023/06/23 07:07:54;;;;;;;24.53;18.30;;;;;;;20.92;89.40;98597.28;4165154;28;21431;-84
2023/06/23 07:09:57;;;;;;;27.07;18.10;;;;;;;20.92;88.93;98607.91;4168641;28;20677;-82
2023/06/23 07:12:01;;;;;;;21.33;16.97;;;;;;;20.94;88.88;98605.09;4146000;28;20661;-84
2023/06/23 07:14:06;;;;;;;24.67;18.20;;;;;;;20.95;88.51;98606.78;4149765;28;20723;-82
2023/06/23 07:16:09;;;;;;;27.67;18.83;;;;;;;20.97;87.89;98604.78;4151688;28;20640;-84
2023/06/23 07:18:13;;;;;;;23.13;17.20;;;;;;;20.95;88.24;98609.44;4172070;28;20632;-83
2023/06/23 07:20:19;;;;;;;24.53;18.40;;;;;;;20.93;88.44;98614.06;4163405;28;21188;-83
2023/06/23 07:22:24;;;;;;;22.83;16.53;;;;;;;20.91;88.42;98618.69;4159889;28;20631;-80
2023/06/23 07:24:28;;;;;;;26.07;18.80;;;;;;;20.93;88.19;98632.63;4162955;28;20670;-80
2023/06/23 07:26:33;;;;;;;25.00;16.50;;;;;;;20.98;87.92;98643.59;4166197;28;20649;-81
2023/06/23 07:28:38;;;;;;;23.10;17.37;;;;;;;21.03;88.00;98630.69;4156148;28;22018;-85
2023/06/23 07:30:43;;;;;;;24.93;17.40;;;;;;;21.13;88.23;98631.44;4171049;28;20673;-84
2023/06/23 07:32:47;;;;;;;24.77;17.87;;;;;;;21.27;87.54;98638.81;4169599;28;20661;-84
2023/06/23 07:34:52;;;;;;;22.43;17.70;;;;;;;21.38;87.11;98637.56;4163522;28;20640;-84
2023/06/23 07:36:55;;;;;;;24.90;16.87;;;;;;;21.43;87.46;98640.56;4149967;28;20634;-84
2023/06/23 07:39:00;;;;;;;21.07;17.10;;;;;;;21.53;87.38;98646.63;4158571;28;20621;-85
2023/06/23 07:41:05;;;;;;;20.80;16.67;;;;;;;21.57;85.69;98655.09;4159786;28;20638;-81
2023/06/23 07:43:09;;;;;;;18.97;15.67;;;;;;;21.58;85.95;98656.78;4153786;28;20670;-81
2023/06/23 07:45:14;;;;;;;21.77;15.97;;;;;;;21.57;86.31;98650.59;4153781;28;21033;-83
2023/06/23 07:47:17;;;;;;;21.87;15.40;;;;;;;21.56;86.15;98650.78;4154179;28;20874;-83
2023/06/23 07:49:21;;;;;;;23.43;16.30;;;;;;;21.57;85.48;98663.88;4138983;28;20627;-84
2023/06/23 07:51:26;;;;;;;21.33;17.17;;;;;;;21.69;85.76;98657.31;4168770;28;20645;-83
2023/06/23 07:53:30;;;;;;;19.13;15.37;;;;;;;21.77;85.64;98655.53;4159398;28;20650;-82
2023/06/23 07:55:35;;;;;;;19.07;14.53;;;;;;;21.90;85.36;98663.84;4161008;28;20667;-82
2023/06/23 07:57:42;;;;;;;16.67;13.87;;;;;;;22.03;84.75;98668.75;4161686;28;20660;-82
2023/06/23 07:59:46;;;;;;;20.40;14.87;;;;;;;21.99;83.65;98670.88;4171544;28;21279;-81
2023/06/23 08:01:49;;;;;;;19.60;14.83;;;;;;;21.92;84.30;98661.03;4164779;28;21033;-82
2023/06/23 08:03:53;;;;;;;19.77;15.17;;;;;;;21.87;84.99;98666.00;4170257;28;20696;-82
2023/06/23 08:05:57;;;;;;;20.27;15.90;;;;;;;21.81;84.30;98669.31;4170244;28;20727;-80
2023/06/23 08:08:01;;;;;;;19.50;16.50;;;;;;;21.75;84.66;98675.25;4167078;28;21225;-81
2023/06/23 08:10:06;;;;;;;18.53;14.53;;;;;;;21.72;84.40;98674.75;4166149;28;20622;-78
2023/06/23 08:12:11;;;;;;;20.60;16.10;;;;;;;21.73;85.11;98681.75;4168082;28;20640;-79
2023/06/23 08:14:15;;;;;;;20.20;15.90;;;;;;;21.82;85.20;98678.97;4160570;28;20690;-78
2023/06/23 08:16:19;;;;;;;19.67;15.37;;;;;;;21.99;84.75;98683.34;4172563;28;20632;-78
2023/06/23 08:18:23;;;;;;;16.90;14.17;;;;;;;22.06;84.25;98681.72;4183976;28;21027;-80
2023/06/23 08:20:27;;;;;;;21.20;16.00;;;;;;;22.04;84.71;98681.03;4180105;28;21042;-80
2023/06/23 08:22:30;;;;;;;20.20;16.00;;;;;;;22.05;84.11;98685.34;4166636;28;20631;-80
2023/06/23 08:24:34;;;;;;;19.83;15.17;;;;;;;22.02;84.23;98685.66;4155712;28;20645;-85
2023/06/23 08:26:38;;;;;;;18.27;14.03;;;;;;;21.98;83.48;98677.19;4168005;28;20627;-81
2023/06/23 08:28:49;;;;;;;18.60;14.27;;;;;;;22.06;83.69;98687.03;4167406;28;21055;-81
2023/06/23 08:30:52;;;;;;;19.27;14.13;;;;;;;22.23;83.33;98698.38;4169817;28;20967;-81
2023/06/23 08:32:56;;;;;;;16.60;13.40;;;;;;;22.50;82.73;98698.13;4171306;28;20666;-79
2023/06/23 08:34:59;;;;;;;18.50;13.07;;;;;;;22.64;81.52;98694.00;4170218;28;20634;-80
2023/06/23 08:37:03;;;;;;;14.83;12.70;;;;;;;22.61;80.52;98695.13;4164919;28;20657;-81
2023/06/23 08:39:08;;;;;;;16.03;12.70;;;;;;;22.81;79.93;98696.50;4165147;28;21228;-81
2023/06/23 08:41:12;;;;;;;15.67;12.87;;;;;;;23.09;80.29;98690.69;4155464;28;20636;-82
2023/06/23 08:43:16;;;;;;;15.97;12.57;;;;;;;23.22;80.39;98694.50;4170725;28;20622;-81
2023/06/23 08:45:22;;;;;;;15.43;12.93;;;;;;;23.14;80.10;98684.88;4153424;28;20646;-84
2023/06/23 08:47:26;;;;;;;15.20;12.60;;;;;;;23.01;78.62;98679.25;4167837;28;20655;-84
2023/06/23 08:49:32;;;;;;;14.83;12.47;;;;;;;22.87;79.37;98679.88;4175298;28;20626;-83
2023/06/23 08:51:36;;;;;;;15.63;12.60;;;;;;;22.74;79.87;98682.19;4169637;28;20677;-83
2023/06/23 08:53:39;;;;;;;18.57;13.90;;;;;;;22.71;80.15;98688.66;4171078;28;21091;-83
2023/06/23 08:55:44;;;;;;;15.03;12.23;;;;;;;22.75;79.42;98681.22;4163198;28;20782;-85
2023/06/23 08:57:48;;;;;;;14.70;11.80;;;;;;;22.88;79.88;98689.50;4170498;28;21392;-84
2023/06/23 08:59:58;;;;;;;13.17;11.10;;;;;;;23.16;80.40;98691.69;4162486;28;21178;-85
2023/06/23 09:02:05;;;;;;;11.57;10.37;;;;;;;23.62;80.43;98697.13;4167051;28;20983;-84
2023/06/23 09:04:08;;;;;;;13.07;10.70;;;;;;;23.62;76.26;98699.78;4169568;28;20993;-84
2023/06/23 09:06:14;;;;;;;14.50;12.03;;;;;;;23.36;76.22;98693.00;4167837;28;20710;-84
2023/06/23 09:08:18;;;;;;;13.90;10.00;;;;;;;23.16;76.37;98706.84;4145895;28;21222;-86
2023/06/23 09:10:21;;;;;;;13.73;10.23;;;;;;;23.14;77.54;98706.16;4131049;28;21065;-84
2023/06/23 09:12:25;;;;;;;15.63;11.10;;;;;;;23.17;76.22;98701.34;4148492;28;20635;-84
2023/06/23 09:14:30;;;;;;;13.20;10.70;;;;;;;23.31;78.45;98719.31;4166054;28;20711;-85
2023/06/23 09:16:36;;;;;;;13.57;10.13;;;;;;;23.54;75.64;98723.75;4149200;28;20632;-84
2023/06/23 09:18:41;;;;;;;12.70;9.13;;;;;;;23.75;75.60;98726.75;4167718;28;20730;-84
2023/06/23 09:20:47;;;;;;;16.47;9.27;;;;;;;23.83;74.85;98727.56;4148623;28;21231;-84
2023/06/23 09:22:51;;;;;;;11.67;9.97;;;;;;;23.90;75.02;98731.19;4166079;28;21007;-84
2023/06/23 09:24:56;;;;;;;12.30;9.70;;;;;;;24.03;75.51;98730.66;4157718;28;20639;-84
2023/06/23 09:27:00;;;;;;;16.87;12.70;;;;;;;24.15;76.42;98717.59;4130108;28;20699;-84
2023/06/23 09:29:18;;;;;;;8.70;7.80;;;;;;;24.20;72.86;98725.88;4160347;28;21187;-84
2023/06/23 09:31:21;;;;;;;10.23;7.60;;;;;;;24.12;72.52;98732.28;4167158;28;20709;-84
2023/06/23 09:33:25;;;;;;;8.27;7.53;;;;;;;24.12;73.95;98725.13;4186886;28;20685;-84
2023/06/23 09:35:31;;;;;;;9.77;8.30;;;;;;;24.23;73.55;98724.72;4172099;28;20637;-84
2023/06/23 09:37:36;;;;;;;10.13;8.57;;;;;;;24.37;71.64;98719.53;4153249;28;20674;-84
2023/06/23 09:39:41;;;;;;;8.87;6.77;;;;;;;24.38;72.84;98728.34;4167118;28;20632;-84
2023/06/23 09:41:55;;;;;;;9.43;8.43;;;;;;;24.22;73.06;98721.25;4164673;28;20737;-84
2023/06/23 09:43:59;;;;;;;10.80;8.30;;;;;;;24.28;72.96;98722.34;4171279;28;20978;-84
2023/06/23 09:46:06;;;;;;;9.63;8.27;;;;;;;24.35;72.52;98726.84;4171868;28;21437;-84
2023/06/23 09:48:18;;;;;;;10.70;8.70;;;;;;;24.37;72.34;98727.53;4171057;28;20995;-83
2023/06/23 09:50:25;;;;;;;7.83;7.03;;;;;;;24.48;72.61;98711.13;4174558;28;20677;-84